Time;durP1;ratioP1;P1;durP2;ratioP2;P2;SDS_P1;SDS_P2;PMS_P1;PMS_P2;Temp;Humidity;BMP_temperature;BMP_pressure;BME280_temperature;BME280_humidity;BME280_pressure;Samples;Min_cycle;Max_cycle;Signal;HPM_P1;HPM_P2
2021/07/27 00:01:55;;;;;;;18.33;12.75;;;19.20;99.90;;;;;;5097106;28;20090;-79
2021/07/27 00:04:21;;;;;;;16.05;11.65;;;19.10;99.90;;;;;;5096594;28;20453;-77
2021/07/27 00:06:46;;;;;;;22.90;13.65;;;19.20;99.90;;;;;;5096770;28;20016;-77
2021/07/27 00:09:12;;;;;;;22.38;12.77;;;19.20;99.90;;;;;;5096427;28;20063;-79
2021/07/27 00:11:38;;;;;;;17.63;12.52;;;19.10;99.90;;;;;;5096436;28;20022;-78
2021/07/27 00:14:04;;;;;;;19.95;12.85;;;19.00;99.90;;;;;;5096147;28;20069;-77
2021/07/27 00:16:32;;;;;;;22.70;14.18;;;18.90;99.90;;;;;;5096821;28;20105;-78
2021/07/27 00:18:58;;;;;;;20.98;13.63;;;18.90;99.90;;;;;;5096420;28;20024;-78
2021/07/27 00:21:24;;;;;;;22.15;15.50;;;18.70;99.90;;;;;;5096173;28;20028;-77
2021/07/27 00:23:50;;;;;;;;;;;18.70;99.90;;;;;;5096503;28;20031;-78
2021/07/27 00:26:16;;;;;;;24.63;16.05;;;18.90;99.90;;;;;;5096154;28;20318;-78
2021/07/27 00:28:42;;;;;;;;;;;18.60;99.90;;;;;;5096416;28;20012;-77
2021/07/27 00:31:18;;;;;;;25.02;15.15;;;18.50;99.90;;;;;;5096070;28;20021;-78
2021/07/27 00:33:45;;;;;;;23.20;15.43;;;18.40;99.90;;;;;;5096112;28;20027;-78
2021/07/27 00:36:11;;;;;;;25.95;17.38;;;18.40;99.90;;;;;;5095969;28;20480;-78
2021/07/27 00:38:37;;;;;;;;;;;18.30;99.90;;;;;;5096273;28;20099;-77
2021/07/27 00:41:02;;;;;;;25.63;16.58;;;18.30;99.90;;;;;;5095902;28;20265;-78
2021/07/27 00:43:28;;;;;;;;;;;18.20;99.90;;;;;;5096286;28;20069;-77
2021/07/27 00:45:54;;;;;;;21.95;13.98;;;18.20;99.90;;;;;;5095850;28;20307;-78
2021/07/27 00:48:19;;;;;;;;;;;18.30;99.90;;;;;;5096099;28;20024;-79
2021/07/27 00:50:45;;;;;;;20.08;13.60;;;18.20;99.90;;;;;;5077618;28;20390;-77
2021/07/27 00:53:11;;;;;;;;;;;18.20;99.90;;;;;;5096061;28;20484;-78
2021/07/27 00:55:39;;;;;;;21.00;13.93;;;18.20;99.90;;;;;;5095646;28;19951;-78
2021/07/27 00:58:05;;;;;;;21.13;14.00;;;18.20;99.90;;;;;;5095533;28;20024;-78
2021/07/27 01:00:31;;;;;;;;;;;18.10;99.90;;;;;;5095945;28;20545;-78
2021/07/27 01:02:57;;;;;;;47.22;30.38;;;18.20;99.90;;;;;;5094652;28;19910;-78
2021/07/27 01:05:24;;;;;;;;;;;18.10;99.90;;;;;;5095844;28;20036;-78
2021/07/27 01:07:50;;;;;;;21.30;14.73;;;18.10;99.90;;;;;;5095640;28;20368;-77
2021/07/27 01:10:16;;;;;;;;;;;18.10;99.90;;;;;;5095694;28;20107;-78
2021/07/27 01:12:46;;;;;;;24.02;14.68;;;18.20;99.90;;;;;;5095451;28;19930;-78
2021/07/27 01:15:12;;;;;;;23.85;14.57;;;18.20;99.90;;;;;;5095008;28;20058;-78
2021/07/27 01:17:38;;;;;;;28.38;14.55;;;18.20;99.90;;;;;;5095159;28;20031;-78
2021/07/27 01:20:32;;;;;;;;;;;18.10;99.90;;;;;;5095742;28;20032;-77
2021/07/27 01:39:32;;;;;;;23.27;13.50;;;18.10;99.90;;;;;;5094833;28;20506;-78
2021/07/27 01:42:05;;;;;;;18.52;13.88;;;18.20;99.90;;;;;;5094765;28;20070;-79
2021/07/27 01:44:32;;;;;;;21.23;14.32;;;18.20;99.90;;;;;;5094918;28;20024;-78
2021/07/27 01:46:58;;;;;;;22.77;15.02;;;18.20;99.90;;;;;;5076410;28;20446;-78
2021/07/27 01:49:23;;;;;;;;;;;18.10;99.90;;;;;;5094890;28;20020;-78
2021/07/27 01:51:49;;;;;;;20.50;13.63;;;18.10;99.90;;;;;;5094517;28;19927;-78
2021/07/27 01:54:16;;;;;;;;;;;18.10;99.90;;;;;;5095094;28;20031;-77
2021/07/27 01:56:47;;;;;;;25.13;14.80;;;17.90;99.90;;;;;;5094453;28;19951;-78
2021/07/27 01:59:12;;;;;;;21.60;13.45;;;18.10;99.90;;;;;;5094464;28;20024;-78
2021/07/27 02:01:39;;;;;;;;;;;18.00;99.90;;;;;;5076517;28;20150;-79
2021/07/27 02:04:05;;;;;;;25.75;14.27;;;18.00;99.90;;;;;;5094525;28;20348;-78
2021/07/27 02:06:31;;;;;;;;;;;18.10;99.90;;;;;;5094619;28;20051;-78
2021/07/27 02:09:01;;;;;;;24.40;12.52;;;18.10;99.90;;;;;;5094228;28;19939;-79
2021/07/27 02:11:35;;;;;;;19.02;11.80;;;18.40;99.90;;;;;;5094788;28;20020;-77
2021/07/27 02:14:00;;;;;;;21.77;13.63;;;18.30;99.90;;;;;;5093312;28;20031;-77
2021/07/27 02:16:26;;;;;;;;;;;18.20;99.90;;;;;;5094506;28;20028;-78
2021/07/27 02:18:52;;;;;;;18.65;12.93;;;18.30;99.90;;;;;;5094034;28;19912;-77
2021/07/27 02:21:17;;;;;;;;;;;18.30;99.90;;;;;;5094488;28;20028;-78
2021/07/27 02:23:43;;;;;;;21.75;12.15;;;18.30;99.90;;;;;;5093866;28;19904;-78
2021/07/27 02:26:09;;;;;;;;;;;18.30;99.90;;;;;;5094463;28;20460;-78
2021/07/27 02:28:34;;;;;;;19.55;12.10;;;18.30;99.90;;;;;;5094121;28;19908;-77
2021/07/27 02:31:02;;;;;;;;;;;18.10;99.90;;;;;;5094208;28;20016;-78
2021/07/27 02:33:37;;;;;;;20.42;13.02;;;18.10;99.90;;;;;;5075631;28;19904;-78
2021/07/27 02:36:02;;;;;;;15.32;11.02;;;18.00;99.90;;;;;;5094156;28;20073;-79
2021/07/27 02:38:28;;;;;;;15.90;10.98;;;18.10;99.90;;;;;;5093792;28;20020;-77
2021/07/27 02:40:54;;;;;;;;;;;18.30;99.90;;;;;;5094268;28;20391;-78
2021/07/27 02:43:20;;;;;;;22.23;11.50;;;18.60;99.90;;;;;;5093691;28;19904;-78
2021/07/27 02:45:45;;;;;;;;;;;18.60;99.90;;;;;;5094264;28;20016;-78
2021/07/27 02:48:11;;;;;;;17.17;11.20;;;18.60;99.90;;;;;;5093841;28;20368;-78
2021/07/27 02:50:36;;;;;;;;;;;18.60;99.90;;;;;;5093834;28;20035;-78
2021/07/27 02:53:02;;;;;;;17.98;12.27;;;18.50;99.90;;;;;;5093452;28;19911;-78
2021/07/27 02:55:28;;;;;;;;;;;18.20;99.90;;;;;;5094333;28;20039;-78
2021/07/27 02:57:54;;;;;;;16.98;11.40;;;18.20;99.90;;;;;;5093421;28;19958;-77
2021/07/27 03:00:19;;;;;;;;;;;18.10;99.90;;;;;;5093948;28;20059;-78
2021/07/27 03:02:45;;;;;;;18.15;10.90;;;18.20;99.90;;;;;;5093324;28;19999;-78
2021/07/27 03:05:16;;;;;;;17.25;12.07;;;18.40;99.90;;;;;;5075167;28;20118;-77
2021/07/27 03:10:21;;;;;;;16.92;11.45;;;18.50;99.90;;;;;;5093179;28;20088;-78
2021/07/27 03:12:49;;;;;;;16.10;11.77;;;18.40;99.90;;;;;;5093522;28;20021;-79
2021/07/27 03:15:16;;;;;;;20.55;12.45;;;18.30;99.90;;;;;;5093004;28;20512;-77
2021/07/27 03:17:42;;;;;;;16.92;11.35;;;18.30;99.90;;;;;;5093251;28;20106;-77
2021/07/27 03:20:10;;;;;;;18.15;11.98;;;18.20;99.90;;;;;;5093203;28;20471;-78
2021/07/27 03:22:36;;;;;;;17.98;11.90;;;18.40;99.90;;;;;;5093093;28;20027;-79
2021/07/27 03:25:02;;;;;;;19.85;12.05;;;18.40;99.90;;;;;;5074884;28;20040;-78
2021/07/27 03:27:28;;;;;;;16.98;11.90;;;18.40;99.90;;;;;;5095528;28;20097;-79
2021/07/27 03:29:53;;;;;;;18.60;12.18;;;18.40;99.90;;;;;;5097160;28;20060;-78
2021/07/27 03:32:19;;;;;;;19.98;13.15;;;18.30;99.90;;;;;;5097179;28;20473;-78
2021/07/27 03:34:45;;;;;;;;;;;18.20;99.90;;;;;;5097615;28;20034;-78
2021/07/27 03:37:11;;;;;;;16.55;12.57;;;18.10;99.90;;;;;;5097090;28;20283;-78
2021/07/27 03:39:37;;;;;;;19.45;13.10;;;18.10;99.90;;;;;;5097060;28;20100;-79
2021/07/27 03:42:03;;;;;;;;;;;18.10;99.90;;;;;;5097420;28;20520;-78
2021/07/27 03:44:29;;;;;;;21.70;12.93;;;17.90;99.90;;;;;;5097045;28;19910;-79
2021/07/27 03:47:05;;;;;;;;;;;17.80;99.90;;;;;;5097354;28;20020;-78
2021/07/27 03:49:31;;;;;;;21.90;14.70;;;17.80;99.90;;;;;;5096965;28;19908;-78
2021/07/27 03:52:00;;;;;;;;;;;17.90;99.90;;;;;;5097333;28;20016;-77
2021/07/27 03:54:29;;;;;;;19.17;12.55;;;17.90;99.90;;;;;;5097211;28;19969;-78
2021/07/27 03:56:55;;;;;;;21.15;13.70;;;17.80;99.90;;;;;;5096896;28;20073;-78
2021/07/27 03:59:20;;;;;;;;;;;17.90;99.90;;;;;;5097300;28;20020;-77
2021/07/27 04:01:46;;;;;;;20.75;14.18;;;17.80;99.90;;;;;;5096659;28;19908;-79
2021/07/27 04:04:11;;;;;;;;;;;17.90;99.90;;;;;;5078757;28;20028;-76
2021/07/27 04:06:37;;;;;;;21.80;14.38;;;17.70;99.90;;;;;;5096576;28;19904;-78
2021/07/27 04:09:03;;;;;;;;;;;17.80;99.90;;;;;;5097024;28;20492;-79
2021/07/27 04:11:29;;;;;;;18.83;13.38;;;17.80;99.90;;;;;;5096702;28;20291;-77
2021/07/27 04:13:55;;;;;;;;;;;18.00;99.90;;;;;;5096610;28;20012;-78
2021/07/27 04:16:20;;;;;;;16.10;12.93;;;17.90;99.90;;;;;;5077896;28;19911;-79
2021/07/27 04:18:49;;;;;;;18.08;13.55;;;18.20;99.90;;;;;;5096291;28;20028;-78
2021/07/27 04:21:15;;;;;;;20.20;15.00;;;18.20;99.90;;;;;;5096348;28;20024;-77
2021/07/27 04:23:40;;;;;;;;;;;17.90;99.90;;;;;;5096594;28;20023;-78
2021/07/27 04:26:06;;;;;;;19.52;14.70;;;17.90;99.90;;;;;;5096185;28;19990;-77
2021/07/27 04:28:32;;;;;;;;;;;17.80;99.90;;;;;;5096670;28;20020;-77
2021/07/27 04:30:58;;;;;;;27.10;15.23;;;17.60;99.90;;;;;;5096132;28;19949;-78
2021/07/27 04:33:26;;;;;;;;;;;17.60;99.90;;;;;;5096565;28;20028;-78
2021/07/27 04:35:53;;;;;;;19.25;14.25;;;17.60;99.90;;;;;;5096048;28;19914;-78
2021/07/27 04:38:21;;;;;;;22.50;15.02;;;17.80;99.90;;;;;;5077246;28;20501;-77
2021/07/27 04:40:56;;;;;;;20.30;15.00;;;17.90;99.90;;;;;;5095935;28;20060;-78
2021/07/27 04:43:21;;;;;;;21.20;14.38;;;17.80;99.90;;;;;;5096160;28;20031;-77
2021/07/27 04:45:47;;;;;;;;;;;17.90;99.90;;;;;;5096253;28;20560;-77
2021/07/27 04:48:13;;;;;;;25.02;15.63;;;17.90;99.90;;;;;;5095754;28;20402;-78
2021/07/27 04:50:39;;;;;;;;;;;17.80;99.90;;;;;;5096379;28;20028;-78
2021/07/27 04:53:08;;;;;;;22.63;14.82;;;17.60;99.90;;;;;;5095887;28;19904;-78
2021/07/27 04:55:33;;;;;;;20.05;14.27;;;17.70;99.90;;;;;;5095615;28;20423;-79
2021/07/27 04:58:01;;;;;;;;;;;17.80;99.90;;;;;;5096268;28;20024;-78
2021/07/27 05:00:26;;;;;;;25.77;16.60;;;18.00;99.90;;;;;;5095744;28;19930;-78
2021/07/27 05:02:52;;;;;;;;;;;17.90;99.90;;;;;;5095890;28;20028;-78
2021/07/27 05:05:18;;;;;;;23.52;14.23;;;17.80;99.90;;;;;;5095506;28;19911;-77
2021/07/27 05:07:45;;;;;;;18.55;13.88;;;17.80;99.90;;;;;;5095381;28;20032;-77
2021/07/27 05:10:11;;;;;;;22.02;14.35;;;17.90;99.90;;;;;;5095242;28;20012;-79
2021/07/27 05:12:37;;;;;;;21.13;14.70;;;18.10;99.90;;;;;;5095242;28;20050;-77
2021/07/27 05:15:07;;;;;;;19.45;14.18;;;17.80;99.90;;;;;;5095249;28;20032;-77
2021/07/27 05:17:32;;;;;;;19.88;14.73;;;17.90;99.90;;;;;;5095146;28;20089;-78
2021/07/27 05:19:58;;;;;;;22.95;16.27;;;18.00;99.90;;;;;;5095144;28;20477;-77
2021/07/27 05:22:24;;;;;;;23.95;14.55;;;17.90;99.90;;;;;;5095265;28;20020;-78
2021/07/27 05:24:51;;;;;;;19.15;13.02;;;18.20;99.90;;;;;;5095058;28;20021;-79
2021/07/27 05:27:25;;;;;;;20.23;13.68;;;18.30;99.90;;;;;;5094985;28;20158;-78
2021/07/27 05:29:52;;;;;;;17.83;13.27;;;18.30;99.90;;;;;;5094891;28;20104;-77
2021/07/27 05:32:18;;;;;;;19.27;14.95;;;18.10;99.90;;;;;;5094861;28;20074;-78
2021/07/27 05:34:44;;;;;;;22.27;14.95;;;18.20;99.90;;;;;;5094776;28;20091;-79
2021/07/27 05:37:10;;;;;;;21.20;14.30;;;18.20;99.90;;;;;;5094779;28;20113;-77
2021/07/27 05:39:36;;;;;;;20.30;13.95;;;18.10;99.90;;;;;;5076564;28;20431;-77
2021/07/27 05:42:02;;;;;;;;;;;17.80;99.90;;;;;;5095048;28;20028;-79
2021/07/27 05:44:28;;;;;;;23.10;15.25;;;17.90;99.90;;;;;;5094669;28;19904;-79
2021/07/27 05:46:54;;;;;;;;;;;18.00;99.90;;;;;;5076764;28;20490;-77
2021/07/27 05:49:21;;;;;;;23.52;16.17;;;18.20;99.90;;;;;;5093852;28;19998;-78
2021/07/27 05:51:50;;;;;;;19.55;14.18;;;18.10;99.90;;;;;;5094564;28;20092;-78
2021/07/27 05:54:19;;;;;;;21.70;13.75;;;18.00;99.90;;;;;;5094406;28;20089;-78
2021/07/27 05:56:48;;;;;;;27.98;15.77;;;17.90;99.90;;;;;;5094425;28;20020;-78
2021/07/27 05:59:15;;;;;;;21.90;15.30;;;17.80;99.90;;;;;;5094513;28;20430;-78
2021/07/27 06:01:41;;;;;;;18.20;13.85;;;17.90;99.90;;;;;;5094295;28;20020;-77
2021/07/27 06:04:08;;;;;;;25.45;16.13;;;18.00;99.90;;;;;;5094307;28;20030;-78
2021/07/27 06:06:34;;;;;;;22.35;14.90;;;18.00;99.90;;;;;;5094162;28;20049;-78
2021/07/27 06:09:03;;;;;;;20.25;14.20;;;18.00;99.90;;;;;;5094259;28;20098;-79
2021/07/27 06:11:29;;;;;;;20.67;15.18;;;18.00;99.90;;;;;;5075876;28;20028;-78
2021/07/27 06:13:55;;;;;;;20.33;15.20;;;17.90;99.90;;;;;;5093950;28;20087;-78
2021/07/27 06:16:21;;;;;;;20.67;14.88;;;18.00;99.90;;;;;;5094106;28;20496;-78
2021/07/27 06:18:46;;;;;;;;;;;17.90;99.90;;;;;;5094421;28;20107;-78
2021/07/27 06:21:12;;;;;;;22.13;14.80;;;17.90;99.90;;;;;;5094303;28;19908;-78
2021/07/27 06:23:38;;;;;;;;;;;17.70;99.90;;;;;;5094257;28;20024;-77
2021/07/27 06:26:05;;;;;;;20.42;15.80;;;17.70;99.90;;;;;;5094093;28;19904;-78
2021/07/27 06:28:31;;;;;;;21.02;14.95;;;17.70;99.90;;;;;;5093828;28;20030;-78
2021/07/27 06:30:57;;;;;;;20.80;14.30;;;17.80;99.90;;;;;;5093714;28;20475;-78
2021/07/27 06:33:22;;;;;;;;;;;17.90;99.90;;;;;;5094218;28;20066;-79
2021/07/27 06:35:48;;;;;;;21.77;15.68;;;17.80;99.90;;;;;;5093827;28;19904;-78
2021/07/27 06:38:13;;;;;;;;;;;17.80;99.90;;;;;;5094122;28;20077;-77
2021/07/27 06:40:39;;;;;;;21.90;15.60;;;17.80;99.90;;;;;;5093814;28;19908;-78
2021/07/27 06:43:05;;;;;;;;;;;18.00;99.90;;;;;;5094021;28;20028;-78
2021/07/27 06:45:31;;;;;;;19.85;13.55;;;18.00;99.90;;;;;;5093609;28;19904;-78
2021/07/27 06:47:56;;;;;;;;;;;18.30;99.90;;;;;;5093991;28;20157;-77
2021/07/27 06:50:22;;;;;;;17.23;12.75;;;18.30;99.90;;;;;;5093415;28;19957;-78
2021/07/27 06:52:48;;;;;;;15.95;11.18;;;18.60;99.90;;;;;;5093601;28;20098;-78
2021/07/27 06:55:17;;;;;;;;;;;18.90;99.90;;;;;;5093768;28;20023;-78
2021/07/27 06:57:43;;;;;;;14.80;11.60;;;19.00;99.90;;;;;;5093414;28;19940;-78
2021/07/27 07:00:09;;;;;;;20.33;12.35;;;19.20;99.90;;;;;;5093174;28;20444;-78
2021/07/27 07:02:35;;;;;;;15.52;11.45;;;19.40;99.90;;;;;;5093545;28;20028;-78
2021/07/27 07:05:01;;;;;;;17.50;12.50;;;19.50;99.90;;;;;;5093336;28;20020;-77
2021/07/27 07:07:26;;;;;;;16.90;11.85;;;19.40;99.90;;;;;;5093276;28;20103;-77
2021/07/27 07:09:52;;;;;;;17.92;11.80;;;19.50;99.90;;;;;;5075208;28;20027;-78
2021/07/27 07:12:18;;;;;;;17.55;11.90;;;19.70;99.90;;;;;;5093566;28;20385;-78
2021/07/27 07:14:43;;;;;;;16.23;10.98;;;19.80;99.90;;;;;;5093094;28;20055;-78
2021/07/27 07:17:12;;;;;;;15.90;10.85;;;19.70;99.90;;;;;;5093227;28;20024;-78
2021/07/27 07:19:37;;;;;;;16.38;12.57;;;19.70;99.90;;;;;;5093098;28;20021;-78
2021/07/27 07:22:03;;;;;;;18.05;11.45;;;19.60;99.90;;;;;;5093091;28;20036;-78
2021/07/27 07:24:29;;;;;;;15.35;11.30;;;19.60;99.90;;;;;;5093231;28;20016;-78
2021/07/27 07:26:55;;;;;;;16.02;11.35;;;19.50;99.90;;;;;;5075033;28;20146;-78
2021/07/27 07:29:21;;;;;;;15.80;10.68;;;19.50;99.90;;;;;;5092990;28;20027;-77
2021/07/27 07:31:46;;;;;;;18.38;12.18;;;19.60;99.90;;;;;;5093079;28;20027;-78
2021/07/27 07:34:13;;;;;;;13.52;9.60;;;19.40;99.90;;;;;;5093022;28;20020;-79
2021/07/27 07:36:39;;;;;;;16.15;10.07;;;19.70;99.90;;;;;;5074898;28;20016;-79
2021/07/27 07:39:04;;;;;;;16.33;10.70;;;19.70;99.90;;;;;;5092924;28;20026;-77
2021/07/27 07:41:30;;;;;;;15.30;10.45;;;19.70;99.90;;;;;;5092977;28;20035;-77
2021/07/27 07:43:56;;;;;;;14.90;10.55;;;19.50;99.90;;;;;;5092912;28;20024;-78
2021/07/27 07:46:22;;;;;;;16.77;10.20;;;19.50;99.90;;;;;;5092883;28;20032;-79
2021/07/27 07:48:47;;;;;;;12.95;9.05;;;19.80;99.90;;;;;;5093077;28;20078;-78
2021/07/27 07:51:13;;;;;;;17.80;10.05;;;20.10;99.90;;;;;;5092950;28;20102;-78
2021/07/27 07:53:39;;;;;;;13.93;10.07;;;20.40;99.90;;;;;;5092915;28;20358;-78
2021/07/27 07:56:11;;;;;;;16.30;10.75;;;20.30;99.90;;;;;;5092842;28;20027;-77
2021/07/27 07:58:36;;;;;;;13.93;9.57;;;20.10;99.90;;;;;;5093299;28;20020;-78
2021/07/27 08:01:07;;;;;;;15.27;9.50;;;19.70;99.90;;;;;;5074671;28;20074;-78
2021/07/27 08:03:32;;;;;;;11.60;8.95;;;19.90;99.90;;;;;;5092918;28;20024;-77
2021/07/27 08:05:58;;;;;;;15.82;9.73;;;20.00;99.90;;;;;;5092762;28;20396;-78
2021/07/27 08:08:24;;;;;;;14.93;10.13;;;20.00;99.90;;;;;;5092732;28;20434;-77
2021/07/27 08:10:50;;;;;;;13.30;10.43;;;20.10;99.90;;;;;;5092650;28;20024;-78
2021/07/27 08:13:15;;;;;;;13.57;9.30;;;19.90;99.90;;;;;;5076603;28;20016;-77
2021/07/27 08:15:41;;;;;;;12.90;9.40;;;19.90;99.90;;;;;;5096230;28;20499;-78
2021/07/27 08:18:07;;;;;;;12.68;9.20;;;19.80;99.90;;;;;;5096366;28;20020;-77
2021/07/27 08:20:33;;;;;;;14.00;9.05;;;19.70;99.90;;;;;;5096311;28;20032;-78
2021/07/27 08:22:59;;;;;;;13.45;9.30;;;19.60;99.90;;;;;;5096177;28;20024;-79
2021/07/27 08:25:25;;;;;;;11.70;8.73;;;19.70;99.90;;;;;;5096243;28;20022;-78
2021/07/27 08:27:51;;;;;;;12.95;9.10;;;19.90;99.90;;;;;;5096191;28;20024;-78
2021/07/27 08:30:18;;;;;;;13.98;9.05;;;20.00;99.90;;;;;;5077886;28;20031;-79
2021/07/27 08:32:45;;;;;;;14.88;8.70;;;19.90;99.90;;;;;;5077926;28;20016;-78
2021/07/27 08:35:12;;;;;;;15.68;9.10;;;19.90;99.90;;;;;;5096078;28;20073;-78
2021/07/27 08:37:38;;;;;;;11.02;7.53;;;19.90;99.90;;;;;;5096194;28;20027;-78
2021/07/27 08:40:05;;;;;;;10.55;7.80;;;19.90;99.90;;;;;;5095935;28;20024;-77
2021/07/27 08:42:32;;;;;;;11.23;6.72;;;20.40;99.90;;;;;;5095906;28;20074;-78
2021/07/27 08:45:00;;;;;;;22.92;19.15;;;20.50;99.90;;;;;;5096087;28;20078;-78
2021/07/27 08:47:26;;;;;;;8.43;5.40;;;20.10;99.90;;;;;;5095851;28;20024;-78
2021/07/27 08:49:57;;;;;;;9.57;5.63;;;20.50;99.90;;;;;;5095808;28;20028;-78
2021/07/27 08:52:23;;;;;;;9.95;5.90;;;20.90;99.90;;;;;;5095667;28;20490;-78
2021/07/27 08:54:49;;;;;;;8.13;5.45;;;20.90;99.90;;;;;;5095584;28;20016;-78
2021/07/27 08:57:15;;;;;;;9.98;5.82;;;20.90;99.90;;;;;;5095656;28;20391;-78
2021/07/27 08:59:41;;;;;;;10.88;5.65;;;21.20;99.90;;;;;;5095606;28;20028;-78
2021/07/27 09:02:07;;;;;;;10.07;6.05;;;21.70;99.90;;;;;;5095582;28;20097;-77
2021/07/27 09:04:33;;;;;;;10.80;5.90;;;21.90;99.90;;;;;;5077387;28;20123;-78
2021/07/27 09:06:59;;;;;;;12.75;7.57;;;21.90;99.90;;;;;;5095376;28;20467;-78
2021/07/27 09:09:33;;;;;;;35.33;29.75;;;21.40;99.90;;;;;;5095330;28;20172;-79
2021/07/27 09:12:01;;;;;;;10.27;5.40;;;20.90;99.90;;;;;;5095325;28;20099;-78
2021/07/27 09:14:28;;;;;;;10.10;5.78;;;21.00;99.90;;;;;;5095535;28;20047;-78
2021/07/27 09:16:56;;;;;;;25.35;22.90;;;20.90;99.90;;;;;;5095229;28;20023;-77
2021/07/27 09:19:22;;;;;;;10.48;5.50;;;20.00;99.90;;;;;;5095239;28;20034;-78
2021/07/27 09:21:48;;;;;;;9.48;5.45;;;20.60;99.90;;;;;;5095217;28;20099;-78
2021/07/27 09:24:20;;;;;;;9.60;5.80;;;20.60;99.90;;;;;;5076789;28;20028;-79
2021/07/27 09:27:08;;;;;;;13.52;7.45;;;20.10;99.90;;;;;;5095472;28;20052;-79
2021/07/27 09:29:44;;;;;;;10.75;6.00;;;20.10;99.90;;;;;;5094886;28;20077;-78
2021/07/27 09:32:19;;;;;;;10.18;6.13;;;20.30;99.90;;;;;;5094960;28;20016;-78
2021/07/27 09:34:45;;;;;;;10.60;6.43;;;20.30;99.90;;;;;;5094928;28;20051;-78
2021/07/27 09:37:11;;;;;;;11.88;6.03;;;20.50;99.90;;;;;;5094850;28;20020;-78
2021/07/27 09:39:37;;;;;;;8.93;5.85;;;20.80;99.90;;;;;;5094884;28;20028;-79
2021/07/27 09:42:08;;;;;;;11.77;9.02;;;21.60;99.90;;;;;;5094737;28;20032;-78
2021/07/27 09:44:36;;;;;;;10.25;6.50;;;22.30;99.90;;;;;;5094760;28;20107;-78
2021/07/27 09:47:03;;;;;;;11.90;5.88;;;22.70;99.90;;;;;;5094741;28;20031;-77
2021/07/27 09:49:29;;;;;;;9.32;6.22;;;23.20;99.90;;;;;;5094562;28;20053;-78
2021/07/27 09:51:58;;;;;;;9.02;5.95;;;23.60;99.90;;;;;;5094586;28;20016;-79
2021/07/27 09:54:26;;;;;;;32.72;27.85;;;23.50;99.90;;;;;;5094631;28;20035;-78
2021/07/27 09:56:53;;;;;;;47.90;43.45;;;22.80;99.90;;;;;;5094469;28;20040;-78
2021/07/27 09:59:22;;;;;;;12.20;7.93;;;22.40;99.90;;;;;;5076305;28;20024;-78
2021/07/27 10:01:55;;;;;;;84.50;75.45;;;22.00;99.90;;;;;;5076249;28;20016;-78
2021/07/27 10:04:40;;;;;;;15.40;13.30;;;22.00;99.90;;;;;;5094516;28;20028;-79
2021/07/27 10:07:06;;;;;;;9.40;6.30;;;22.70;99.90;;;;;;5094487;28;20016;-79
2021/07/27 10:09:35;;;;;;;48.95;42.55;;;23.70;99.90;;;;;;5094310;28;20108;-77
2021/07/27 10:12:06;;;;;;;17.83;16.05;;;23.30;99.90;;;;;;5094200;28;20118;-79
2021/07/27 10:14:45;;;;;;;20.23;18.13;;;23.10;99.90;;;;;;5093815;28;20086;-78
2021/07/27 10:17:13;;;;;;;42.95;38.55;;;24.30;99.90;;;;;;5094413;28;20028;-80
2021/07/27 10:19:47;;;;;;;33.92;29.73;;;25.70;98.20;;;;;;5094050;28;20024;-78
2021/07/27 10:22:15;;;;;;;47.67;43.17;;;25.80;95.60;;;;;;5094070;28;20059;-79
2021/07/27 10:24:45;;;;;;;25.52;23.23;;;25.30;95.60;;;;;;5093781;28;20047;-78
2021/07/27 10:27:18;;;;;;;10.90;9.73;;;25.90;95.30;;;;;;5093896;28;20020;-78
2021/07/27 10:29:44;;;;;;;13.20;10.38;;;26.10;95.40;;;;;;5093859;28;20476;-77
2021/07/27 10:32:12;;;;;;;11.43;6.97;;;25.00;97.80;;;;;;5093857;28;20020;-78
2021/07/27 10:34:40;;;;;;;15.07;12.50;;;25.30;98.00;;;;;;5094108;28;20061;-78
2021/07/27 10:37:12;;;;;;;32.47;29.33;;;24.50;97.80;;;;;;5093417;28;20401;-79
2021/07/27 10:39:59;;;;;;;13.15;11.75;;;24.10;97.10;;;;;;5093779;28;20099;-77
2021/07/27 10:42:37;;;;;;;22.65;20.33;;;25.10;96.90;;;;;;5075493;28;20028;-79
2021/07/27 10:45:03;;;;;;;11.80;10.38;;;25.70;95.70;;;;;;5093860;28;20093;-78
2021/07/27 10:47:29;;;;;;;12.05;8.40;;;25.30;96.20;;;;;;5093509;28;20069;-80
2021/07/27 10:50:02;;;;;;;40.60;37.22;;;25.80;96.00;;;;;;5093466;28;20076;-78
2021/07/27 10:52:30;;;;;;;23.45;21.38;;;25.00;94.20;;;;;;5093511;28;20035;-79
2021/07/27 10:54:58;;;;;;;11.52;9.48;;;25.20;94.30;;;;;;5093665;28;20024;-79
2021/07/27 10:57:46;;;;;;;30.42;27.58;;;24.60;95.80;;;;;;5093441;28;20476;-79
2021/07/27 11:00:12;;;;;;;25.40;22.52;;;24.40;96.10;;;;;;5093483;28;20107;-79
2021/07/27 11:02:39;;;;;;;34.10;30.77;;;24.30;97.30;;;;;;5093579;28;20543;-79
2021/07/27 11:05:05;;;;;;;11.15;8.88;;;24.90;97.30;;;;;;5093605;28;20032;-77
2021/07/27 11:07:35;;;;;;;22.95;20.88;;;25.50;95.10;;;;;;5093340;28;20476;-77
2021/07/27 11:10:01;;;;;;;54.53;49.45;;;25.60;94.70;;;;;;5075115;28;20028;-77
2021/07/27 11:12:38;;;;;;;16.42;15.00;;;26.00;93.60;;;;;;5093506;28;20480;-78
2021/07/27 11:15:23;;;;;;;11.18;8.55;;;26.00;93.00;;;;;;5074794;28;20615;-79
2021/07/27 11:18:02;;;;;;;;;;;25.60;94.10;;;;;;5093777;28;20032;-79
2021/07/27 11:20:36;;;;;;;20.08;17.98;;;25.90;94.20;;;;;;5093656;28;19912;-80
2021/07/27 11:23:11;;;;;;;26.13;22.60;;;25.50;94.60;;;;;;5074802;28;20028;-79
2021/07/27 11:25:37;;;;;;;;;;;25.90;93.40;;;;;;5093769;28;20032;-78
2021/07/27 11:28:14;;;;;;;15.80;14.35;;;26.20;93.50;;;;;;5093259;28;20042;-79
2021/07/27 11:30:41;;;;;;;24.05;21.90;;;26.80;93.80;;;;;;5093251;28;20063;-80
2021/07/27 11:33:20;;;;;;;67.75;61.88;;;27.20;92.10;;;;;;5093144;28;20103;-78
2021/07/27 11:35:52;;;;;;;73.63;66.70;;;27.70;90.20;;;;;;5093085;28;20020;-79
2021/07/27 11:38:29;;;;;;;28.25;25.38;;;28.30;90.50;;;;;;5093308;28;20017;-79
2021/07/27 11:41:05;;;;;;;11.52;10.32;;;29.00;87.90;;;;;;5074665;28;20515;-81
2021/07/27 11:43:35;;;;;;;22.65;20.90;;;29.50;83.30;;;;;;5092995;28;20555;-80
2021/07/27 11:46:13;;;;;;;33.58;30.60;;;27.90;87.80;;;;;;5092994;28;20036;-79
2021/07/27 11:48:39;;;;;;;32.05;29.20;;;27.10;89.60;;;;;;5095834;28;20031;-78
2021/07/27 11:51:05;;;;;;;18.92;17.02;;;26.70;90.20;;;;;;5096857;28;20035;-79
2021/07/27 11:53:34;;;;;;;22.70;20.58;;;26.40;91.60;;;;;;5096923;28;20016;-79
2021/07/27 11:56:14;;;;;;;40.67;36.42;;;26.00;92.40;;;;;;5096763;28;20054;-80
2021/07/27 11:58:40;;;;;;;56.83;51.00;;;26.70;91.20;;;;;;5097106;28;20012;-79
2021/07/27 12:01:06;;;;;;;8.85;7.03;;;25.90;90.20;;;;;;5096954;28;20024;-79
2021/07/27 12:03:31;;;;;;;44.50;40.30;;;26.50;91.80;;;;;;5096790;28;20028;-78
2021/07/27 12:05:57;;;;;;;11.55;9.75;;;27.20;86.60;;;;;;5096654;28;20024;-79
2021/07/27 12:08:23;;;;;;;20.65;18.80;;;27.20;89.10;;;;;;5096772;28;20028;-79
2021/07/27 12:10:50;;;;;;;46.67;42.75;;;28.80;87.70;;;;;;5096589;28;20067;-80
2021/07/27 12:13:19;;;;;;;39.95;36.42;;;28.70;83.30;;;;;;5096786;28;20507;-79
2021/07/27 12:15:47;;;;;;;51.92;47.45;;;28.00;81.50;;;;;;5096013;28;20052;-79
2021/07/27 12:18:13;;;;;;;38.08;34.35;;;29.50;83.60;;;;;;5096351;28;20024;-80
2021/07/27 12:20:38;;;;;;;31.52;26.48;;;29.90;78.00;;;;;;5096285;28;20024;-78
2021/07/27 12:23:05;;;;;;;39.83;35.88;;;28.80;79.50;;;;;;5096293;28;20058;-79
2021/07/27 12:25:34;;;;;;;31.45;28.48;;;30.50;78.30;;;;;;5096311;28;20504;-78
2021/07/27 12:28:01;;;;;;;62.33;56.08;;;29.60;79.20;;;;;;5096665;28;20103;-79
2021/07/27 12:30:29;;;;;;;102.78;92.93;;;28.20;79.90;;;;;;5095735;28;20028;-78
2021/07/27 12:32:56;;;;;;;59.42;54.38;;;26.70;84.90;;;;;;5096081;28;20078;-78
2021/07/27 12:35:22;;;;;;;14.73;13.30;;;26.80;86.80;;;;;;5096045;28;20020;-78
2021/07/27 12:37:47;;;;;;;22.08;20.08;;;29.30;82.80;;;;;;5096048;28;20031;-79
2021/07/27 12:40:13;;;;;;;26.02;23.67;;;28.20;80.90;;;;;;5096317;28;20516;-79
2021/07/27 12:42:39;;;;;;;33.63;29.00;;;27.50;81.60;;;;;;5077728;28;20458;-78
2021/07/27 12:45:06;;;;;;;30.98;28.15;;;27.80;82.50;;;;;;5095939;28;20032;-79
2021/07/27 12:47:36;;;;;;;70.82;63.75;;;27.60;81.80;;;;;;5095869;28;20016;-79
2021/07/27 12:50:06;;;;;;;15.05;13.63;;;27.00;84.80;;;;;;5096066;28;20055;-78
2021/07/27 12:52:32;;;;;;;8.55;6.60;;;27.40;83.50;;;;;;5096178;28;20020;-78
2021/07/27 12:54:57;;;;;;;10.02;8.68;;;27.90;83.90;;;;;;5095673;28;20127;-78
2021/07/27 12:57:23;;;;;;;9.20;8.05;;;27.90;82.90;;;;;;5095663;28;20050;-78
2021/07/27 12:59:49;;;;;;;15.05;13.63;;;29.00;80.60;;;;;;5095147;28;20105;-79
2021/07/27 13:02:18;;;;;;;25.25;22.95;;;27.40;82.10;;;;;;5077322;28;20016;-78
2021/07/27 13:04:44;;;;;;;26.17;23.67;;;28.90;78.90;;;;;;5095801;28;20024;-79
2021/07/27 13:07:12;;;;;;;11.00;9.20;;;27.70;78.70;;;;;;5095461;28;20065;-78